x

Isle Of Shoals, Nh (iosn3) Weather Station

9:00am - Thu 30th Mar 2017 All times are EDT. -4 hours from GMT.

  • Wind
    14mph, 16mph gusts
  • 空気 Temp 36°f
  • Sea Pressure 1022.8mb
  • Isle Of Shoals, Nh
  • Isle Of Shoals, Nh

More Historic Weather Station data

Upgrade to MSW Pro to gain access to the past 30 days of data for over 8000 Wavebouys and Weather Stations around the globe.

Join Pro

Comparision Forecast

View Surf forecast
   
Thu 03/30 9:00am 14 16 mph 1022.8mb 36f
8:00am 14 16 mph 1022.2mb 35f
7:00am 13 15 mph 1021.7mb 35f
6:00am 11 13 mph 1021.3mb 35f
5:00am 15 17 mph 1020.6mb 37f
4:00am 14 15 mph 1019.8mb 37f
3:00am 16 17 mph 1019.9mb 37f
2:00am 15 18 mph 1019.9mb 37f
1:00am 17 18 mph 1019.9mb 38f
12:00am 16 17 mph 1020mb 37f
Wed 03/29 11:00pm 17 20 mph 1020mb 38f
10:00pm 18 22 mph 1019.8mb 38f
9:00pm 21 22 mph 1019.5mb 40f
8:00pm 21 22 mph 1018.7mb 41f
7:00pm 14 16 mph 1018.1mb 41f
6:00pm 15 16 mph 1017.3mb 41f
5:00pm 25 29 mph 1016.4mb 41f
4:00pm 22 23 mph 1015.9mb 43f
3:00pm  -  mph 1015.9mb 40f
2:00pm 3 5 mph 1016mb 40f
1:00pm 7 8 mph 1016.2mb 41f
12:00pm 10 13 mph 1016.2mb 41f
11:00am 11 13 mph 1016.7mb 39f
10:00am 16 17 mph 1016.5mb 38f
9:00am 16 18 mph 1015.7mb 37f
8:00am 11 13 mph 1015.6mb 37f
7:00am 14 16 mph 1015.5mb 36f
6:00am 13 14 mph 1015mb 36f
5:00am 16 17 mph 1014.4mb 36f
4:00am 15 16 mph 1014mb 37f
3:00am 15 17 mph 1013.8mb 37f
2:00am 11 14 mph 1014.1mb 37f
1:00am 11 13 mph 1014.7mb 37f
12:00am 14
mph
1014.9mb 37f
Tue 03/28 11:00pm 8 9 mph 1015mb 38f
10:00pm 6
mph
1015.2mb 38f
9:00pm 9
mph
1015mb 38f
8:00pm 9
mph
1014.8mb 38f
7:00pm 9
mph
1014.9mb 37f
6:00pm 8 9 mph 1015.2mb 37f
5:00pm 7
mph
1015.6mb 37f
4:00pm 7 8 mph 1015.8mb 37f
3:00pm 9 10 mph 1015.8mb 37f
2:00pm 10 11 mph 1016mb 36f
1:00pm 10 11 mph 1016.5mb 36f
12:00pm 8 9 mph 1017.2mb 36f
11:00am 7 8 mph 1017.4mb 36f
10:00am 9 10 mph 1017mb 36f
9:00am 6
mph
1017.4mb 36f
8:00am 7 8 mph 1017.1mb 35f
7:00am 11 13 mph 1016.2mb 35f
6:00am 10 11 mph 1016.1mb 35f
5:00am 10 11 mph 1016.1mb 35f
4:00am 13 15 mph 1016.1mb 34f
3:00am 10 11 mph 1016.7mb 34f
2:00am 10 11 mph 1017.2mb 34f
1:00am 14 15 mph 1016.9mb 35f
12:00am 11 13 mph 1016.8mb 35f
Mon 03/27 11:00pm 16 17 mph 1016.9mb 35f
10:00pm 17 20 mph 1016.9mb 36f
9:00pm 22 25 mph 1016.6mb 36f
8:00pm 25 28 mph 1016.3mb 37f
7:00pm 22 25 mph 1015.7mb 37f
6:00pm 22 23 mph 1015.5mb 38f
5:00pm 15 17 mph 1015.5mb 39f
4:00pm 18 21 mph 1016.2mb 39f
3:00pm 18 21 mph 1017.2mb 39f
2:00pm 18 20 mph 1018.2mb 39f
1:00pm 21 23 mph 1019mb 39f
12:00pm 16
mph
1020.8mb 39f
11:00am 15 16 mph 1021.4mb 39f
10:00am 15 17 mph 1022.3mb 39f
9:00am 21 23 mph 1022.5mb 38f
8:00am 22 24 mph 1023.2mb 37f
7:00am 18 20 mph 1024.5mb 37f
6:00am 20
mph
1025mb 36f
5:00am 17 20 mph 1025.8mb 37f
4:00am 16 17 mph 1026.5mb 38f
3:00am 16 17 mph 1027.3mb 37f
2:00am 15 16 mph 1027.9mb 37f
1:00am 11 13 mph 1028.7mb 37f
12:00am 13 15 mph 1029.9mb 37f
Sun 03/26 11:00pm 15 16 mph 1029.9mb 37f
10:00pm 16 18 mph 1030.3mb 36f
9:00pm 11 14 mph 1031.2mb 36f
8:00pm 11 14 mph 1031.7mb 35f
7:00pm 9 10 mph 1032.4mb 35f
6:00pm 11 14 mph 1032.7mb 35f
5:00pm 13
mph
1033mb 34f
4:00pm 9 10 mph 1033mb 34f
3:00pm 10 11 mph 1033.5mb 34f